createdAt,value
2023-05-26T00:21:18.607Z,20
2023-05-26T00:50:36.931Z,22
2023-05-26T01:19:58.334Z,22
2023-05-26T01:49:18.499Z,22
2023-05-26T02:18:43.070Z,23
2023-05-26T02:48:04.471Z,22
2023-05-26T03:17:16.101Z,23
2023-05-26T03:46:40.173Z,23
2023-05-26T04:15:52.868Z,22
2023-05-26T04:45:15.042Z,26
2023-05-26T05:13:53.294Z,25
2023-05-26T05:42:55.521Z,29
2023-05-26T06:12:05.498Z,26
2023-05-26T06:41:15.653Z,26
2023-05-26T07:10:26.542Z,27
2023-05-26T07:39:44.782Z,27
2023-05-26T08:09:04.110Z,26
2023-05-26T08:38:15.157Z,25
2023-05-26T09:07:34.964Z,23
2023-05-26T09:36:34.472Z,22
2023-05-26T10:05:49.014Z,24
2023-05-26T10:35:11.986Z,23
2023-05-26T11:04:32.235Z,25
2023-05-26T11:33:51.259Z,23
2023-05-26T12:03:20.305Z,22
2023-05-26T12:32:43.365Z,22
2023-05-26T13:02:06.223Z,20
2023-05-26T13:31:26.645Z,22
2023-05-26T14:00:32.366Z,20
2023-05-26T14:29:59.118Z,22
2023-05-26T14:59:24.484Z,20
2023-05-26T15:28:45.163Z,19
2023-05-26T15:58:07.827Z,17
2023-05-26T16:27:27.191Z,16
2023-05-26T16:56:47.122Z,16
2023-05-26T17:25:58.478Z,18
2023-05-26T17:55:11.131Z,19
2023-05-26T18:24:14.907Z,16
2023-05-26T18:53:24.428Z,17
2023-05-26T19:22:27.851Z,17
2023-05-26T19:51:32.780Z,19
2023-05-26T20:20:34.246Z,20
2023-05-26T20:49:37.282Z,18
2023-05-26T21:18:40.320Z,19
2023-05-26T21:47:52.689Z,17
2023-05-26T22:17:06.245Z,17
2023-05-26T22:46:24.467Z,18
2023-05-26T23:15:33.573Z,17
2023-05-26T23:44:55.928Z,18
